Huvudsida
METAR-TAF:

METAR-TAF

Flygplatser :

Damascus Int. Airport

Damaskus, Syrien

latitud: 33-25N, longitud: 036-31E, höjd: 608 m

Aktuellt väderrapport

Denna rapport gjordes för 3 timmar och 33 minuter sedan, klockan 00:00 UTC
Vind 15 kt från syd/sydväst
Temperatur 20°C
Fuktighet 37%
Tryck 1011 hPa
Sikt 10 km eller mer
Inga moln under 1 500 m eller inga cumulonimbus

METAR: OSDI 250000Z 21015KT CAVOK 20/05 Q1011

Tid: 06:33 (03:33 UTC)

Väderprognos

Denna rapport gjordes för 5 timmar och 33 minuter sedan, klockan 22:00 UTC
Prognos gäller från 25 kl. 00 UTC till 26 kl. 06 UTC
Vind 10 kt från sydväst
Sikt 10 km eller mer
Få moln på en höjd av 3000 ft
Temporärt
från 25 kl. 10 UTC till 25 kl. 18 UTC
Vind 10 kt från väst i byarna ända upp till 20 kt
Sikt: 8000 m
Få moln på en höjd av 3000 ft
Spridda moln på en höjd av 10000 ft

TAF: OSDI 242200Z 2500/2606 22010KT 9999 FEW030 TEMPO 2510/2518 28010G20KT 8000 FEW030 SCT100

Aktuella väderrapporter och prognoser från 4000 flygplatser (METAR- och TAF-rapporter).

De tillgängliga stationerna syns som gula och röda prickar på kartan.

För musen över prickarna för att se namnen på stationerna.

Klicka sedan för att få väderrapporter och prognoser.

För att ändra kartan: Klicka på de gröna knapparna med ett svart kors på för att zooma in; den gröna knappen med ett streck på för att zooma ut; eller på de gröna pilarna för angränsande kartor.


METAR-TAF: